createdAt,value
2018-01-01T00:00:40.254Z,34.53
2018-01-01T00:03:07.841Z,35.80
2018-01-01T00:05:35.458Z,32.97
2018-01-01T00:08:03.634Z,30.67
2018-01-01T00:10:31.145Z,26.23
2018-01-01T00:12:58.854Z,22.90
2018-01-01T00:15:27.146Z,20.10
2018-01-01T00:17:54.665Z,19.17
2018-01-01T00:20:23.087Z,14.90
2018-01-01T00:22:51.650Z,16.50
2018-01-01T00:25:19.995Z,12.97
2018-01-01T00:27:48.995Z,12.30
2018-01-01T00:30:16.501Z,12.30
2018-01-01T00:32:44.188Z,10.67
2018-01-01T00:35:11.714Z,11.27
2018-01-01T00:37:39.287Z,10.33
2018-01-01T00:40:07.641Z,10.97
2018-01-01T00:42:35.164Z,8.90
2018-01-01T00:45:02.721Z,8.80
2018-01-01T00:47:31.000Z,7.67
2018-01-01T00:49:58.560Z,7.47
2018-01-01T00:52:26.133Z,8.27
2018-01-01T00:54:54.299Z,7.77
2018-01-01T00:57:21.928Z,7.73
2018-01-01T00:59:49.460Z,8.13
2018-01-01T01:02:17.886Z,9.00
2018-01-01T01:04:48.188Z,7.83
2018-01-01T01:07:16.026Z,8.60
2018-01-01T01:09:44.913Z,8.60
2018-01-01T01:12:12.501Z,9.47
2018-01-01T01:14:40.188Z,8.23
2018-01-01T01:17:07.721Z,8.23
2018-01-01T01:19:35.281Z,10.13
2018-01-01T01:22:02.820Z,8.07
2018-01-01T01:24:31.093Z,7.37
2018-01-01T01:26:59.424Z,6.70
2018-01-01T01:29:28.467Z,6.37
2018-01-01T01:31:56.933Z,6.53
2018-01-01T01:34:24.548Z,5.80
2018-01-01T01:36:52.944Z,5.70
2018-01-01T01:39:21.567Z,5.80
2018-01-01T01:41:49.737Z,7.20
2018-01-01T01:44:17.455Z,7.07
2018-01-01T01:46:46.478Z,5.63
2018-01-01T01:49:14.057Z,5.23
2018-01-01T01:51:41.605Z,5.80
2018-01-01T01:54:09.088Z,6.27
2018-01-01T01:56:36.897Z,6.23
2018-01-01T01:59:05.147Z,6.23
2018-01-01T02:01:32.745Z,5.50
2018-01-01T02:04:01.094Z,5.50
2018-01-01T02:06:29.766Z,5.33
2018-01-01T02:08:57.325Z,5.40
2018-01-01T02:11:24.994Z,4.73
2018-01-01T02:13:52.800Z,4.93
2018-01-01T02:16:21.056Z,4.90
2018-01-01T02:18:48.703Z,4.80
2018-01-01T02:21:16.255Z,5.50
2018-01-01T02:23:44.740Z,5.17
2018-01-01T02:26:12.251Z,5.80
2018-01-01T02:28:39.738Z,5.60
2018-01-01T02:31:07.333Z,7.20
2018-01-01T02:33:34.847Z,5.50
2018-01-01T02:36:03.347Z,5.30
2018-01-01T02:38:31.820Z,5.77
2018-01-01T02:40:59.329Z,5.17
2018-01-01T02:43:28.739Z,5.90
2018-01-01T02:45:56.265Z,5.37
2018-01-01T02:48:25.252Z,5.47
2018-01-01T02:50:54.448Z,4.93
2018-01-01T02:53:22.525Z,5.40
2018-01-01T02:55:50.647Z,5.80
2018-01-01T02:58:18.320Z,5.27
2018-01-01T03:00:45.873Z,5.03
2018-01-01T03:03:14.097Z,4.50
2018-01-01T03:05:41.783Z,5.00
2018-01-01T03:08:09.286Z,5.37
2018-01-01T03:10:37.173Z,4.97
2018-01-01T03:13:04.844Z,4.30
2018-01-01T03:15:32.905Z,4.47
2018-01-01T03:18:00.424Z,4.20
2018-01-01T03:20:28.100Z,4.00
2018-01-01T03:22:57.593Z,3.20
2018-01-01T03:25:26.187Z,3.40
2018-01-01T03:27:53.686Z,3.63
2018-01-01T03:30:21.993Z,3.83
2018-01-01T03:32:49.595Z,2.60
2018-01-01T03:35:17.941Z,2.40
2018-01-01T03:37:46.288Z,2.83
2018-01-01T03:40:13.830Z,2.37
2018-01-01T03:42:41.332Z,2.90
2018-01-01T03:45:09.623Z,2.90
2018-01-01T03:47:37.170Z,2.33
2018-01-01T03:50:05.468Z,3.00
2018-01-01T03:52:33.005Z,1.90
2018-01-01T03:55:01.313Z,1.93
2018-01-01T03:57:28.834Z,2.00
2018-01-01T03:59:56.482Z,1.70
2018-01-01T04:02:24.897Z,1.73
2018-01-01T04:04:53.666Z,1.83
2018-01-01T04:07:21.411Z,3.00
2018-01-01T04:09:49.153Z,1.70
2018-01-01T04:12:17.446Z,1.60
2018-01-01T04:14:45.208Z,1.70
2018-01-01T04:17:13.560Z,2.10
2018-01-01T04:19:41.963Z,1.80
2018-01-01T04:22:09.705Z,1.60
2018-01-01T04:24:38.001Z,1.60
2018-01-01T04:27:06.505Z,1.40
2018-01-01T04:29:34.024Z,1.50
2018-01-01T04:32:01.537Z,1.50
2018-01-01T04:34:29.062Z,1.83
2018-01-01T04:36:57.372Z,1.60
2018-01-01T04:39:24.930Z,1.97
2018-01-01T04:41:53.014Z,1.50
2018-01-01T04:44:20.689Z,2.10
2018-01-01T04:46:48.826Z,2.07
2018-01-01T04:49:16.590Z,1.90
2018-01-01T04:51:44.389Z,1.90
2018-01-01T04:54:13.061Z,1.43
2018-01-01T04:56:41.590Z,1.33
2018-01-01T04:59:10.402Z,1.80
2018-01-01T05:01:37.964Z,2.10
2018-01-01T05:04:05.735Z,2.60
2018-01-01T05:06:34.936Z,1.77
2018-01-01T05:09:02.599Z,1.93
2018-01-01T05:11:30.518Z,2.20
2018-01-01T05:13:58.780Z,2.53
2018-01-01T05:16:26.756Z,3.10
2018-01-01T05:18:55.048Z,2.53
2018-01-01T05:21:23.443Z,1.93
2018-01-01T05:23:51.780Z,1.83
2018-01-01T05:26:19.404Z,1.57
2018-01-01T05:28:47.089Z,1.17
2018-01-01T05:31:15.969Z,1.10
2018-01-01T05:33:43.681Z,1.20
2018-01-01T05:36:11.173Z,1.60
2018-01-01T05:38:39.681Z,0.93
2018-01-01T05:41:07.468Z,1.40
2018-01-01T05:43:35.688Z,1.23
2018-01-01T05:46:03.193Z,1.10
2018-01-01T05:48:30.809Z,1.20
2018-01-01T05:50:58.304Z,1.57
2018-01-01T05:53:26.645Z,1.30
2018-01-01T05:55:55.018Z,1.30
2018-01-01T05:58:22.550Z,1.10
2018-01-01T06:00:50.399Z,1.17
2018-01-01T06:03:19.073Z,1.73
2018-01-01T06:05:46.601Z,1.80
2018-01-01T06:08:14.109Z,1.37
2018-01-01T06:10:43.352Z,1.20
2018-01-01T06:13:10.914Z,1.87
2018-01-01T06:15:38.573Z,1.60
2018-01-01T06:18:06.196Z,2.10
2018-01-01T06:20:33.699Z,1.30
2018-01-01T06:23:01.233Z,1.70
2018-01-01T06:25:29.534Z,1.63
2018-01-01T06:27:57.064Z,1.27
2018-01-01T06:30:25.298Z,1.23
2018-01-01T06:32:52.814Z,1.37
2018-01-01T06:35:21.045Z,1.20
2018-01-01T06:37:48.625Z,1.10
2018-01-01T06:40:17.121Z,0.70
2018-01-01T06:42:44.682Z,1.33
2018-01-01T06:45:12.228Z,1.47
2018-01-01T06:47:40.288Z,0.83
2018-01-01T06:50:08.608Z,1.40
2018-01-01T06:52:36.825Z,0.93
2018-01-01T06:55:05.132Z,1.10
2018-01-01T06:57:32.652Z,1.10
2018-01-01T07:00:00.962Z,1.27
2018-01-01T07:02:29.270Z,1.10
2018-01-01T07:04:56.796Z,0.80
2018-01-01T07:07:25.244Z,1.67
2018-01-01T07:09:53.541Z,0.87
2018-01-01T07:12:21.110Z,1.17
2018-01-01T07:14:50.619Z,1.00
2018-01-01T07:17:19.005Z,1.57
2018-01-01T07:19:46.525Z,1.03
2018-01-01T07:22:14.119Z,1.00
2018-01-01T07:24:41.630Z,1.40
2018-01-01T07:27:09.163Z,1.47
2018-01-01T07:29:37.990Z,1.10
2018-01-01T07:32:05.521Z,1.07
2018-01-01T07:34:34.097Z,1.17
2018-01-01T07:37:01.616Z,1.50
2018-01-01T07:39:29.223Z,1.40
2018-01-01T07:41:56.814Z,0.93
2018-01-01T07:44:25.831Z,1.20
2018-01-01T07:46:53.365Z,1.70
2018-01-01T07:49:21.676Z,0.93
2018-01-01T07:51:49.181Z,1.60
2018-01-01T07:54:16.749Z,1.07
2018-01-01T07:56:44.391Z,0.87
2018-01-01T07:59:11.969Z,1.20
2018-01-01T08:01:40.229Z,1.00
2018-01-01T08:04:08.464Z,0.87
2018-01-01T08:06:36.799Z,1.53
2018-01-01T08:09:04.402Z,1.63
2018-01-01T08:11:32.722Z,1.00
2018-01-01T08:14:01.213Z,1.40
2018-01-01T08:16:28.729Z,1.73
2018-01-01T08:18:56.229Z,1.90
2018-01-01T08:21:23.740Z,0.83
2018-01-01T08:23:51.248Z,1.33
2018-01-01T08:26:18.924Z,1.20
2018-01-01T08:28:46.446Z,1.80
2018-01-01T08:31:15.472Z,1.57
2018-01-01T08:33:42.996Z,1.93
2018-01-01T08:36:10.500Z,1.27
2018-01-01T08:38:39.011Z,1.40
2018-01-01T08:41:07.308Z,1.10
2018-01-01T08:43:34.949Z,1.17
2018-01-01T08:46:02.500Z,2.27
2018-01-01T08:48:30.994Z,1.03
2018-01-01T08:50:59.055Z,1.20
2018-01-01T08:53:26.637Z,1.20
2018-01-01T08:55:54.193Z,1.20
2018-01-01T08:58:22.565Z,1.13
2018-01-01T09:00:50.900Z,1.10
2018-01-01T09:03:18.438Z,1.17
2018-01-01T09:05:45.956Z,1.20
2018-01-01T09:08:14.272Z,1.33
2018-01-01T09:10:41.977Z,1.33
2018-01-01T09:13:09.472Z,1.27
2018-01-01T09:15:37.063Z,1.43
2018-01-01T09:18:05.567Z,1.20
2018-01-01T09:20:33.069Z,1.00
2018-01-01T09:23:00.595Z,1.57
2018-01-01T09:25:28.112Z,1.37
2018-01-01T09:27:55.721Z,1.47
2018-01-01T09:30:23.300Z,1.50
2018-01-01T09:32:51.201Z,1.90
2018-01-01T09:37:51.758Z,1.23
2018-01-01T09:40:20.015Z,1.80
2018-01-01T09:42:48.591Z,1.20
2018-01-01T09:45:16.540Z,1.90
2018-01-01T09:47:44.308Z,1.27
2018-01-01T09:50:12.184Z,1.40
2018-01-01T09:52:39.773Z,1.17
2018-01-01T09:55:07.589Z,1.30
2018-01-01T09:57:35.770Z,1.70
2018-01-01T10:00:03.371Z,1.23
2018-01-01T10:02:32.067Z,1.17
2018-01-01T10:04:59.727Z,1.30
2018-01-01T10:07:27.254Z,1.27
2018-01-01T10:09:55.619Z,1.10
2018-01-01T10:12:23.398Z,1.10
2018-01-01T10:14:52.597Z,0.90
2018-01-01T10:17:20.305Z,1.07
2018-01-01T10:19:48.393Z,1.07
2018-01-01T10:22:16.084Z,1.10
2018-01-01T10:24:43.679Z,0.80
2018-01-01T10:27:12.000Z,1.27
2018-01-01T10:29:40.408Z,1.20
2018-01-01T10:32:07.960Z,0.90
2018-01-01T10:34:36.860Z,1.10
2018-01-01T10:37:05.220Z,0.83
2018-01-01T10:39:33.622Z,0.97
2018-01-01T10:42:01.179Z,1.10
2018-01-01T10:44:28.975Z,1.00
2018-01-01T10:46:57.146Z,0.80
2018-01-01T10:49:24.804Z,2.10
2018-01-01T10:51:53.107Z,0.80
2018-01-01T10:54:21.025Z,1.20
2018-01-01T10:56:48.576Z,1.70
2018-01-01T10:59:17.910Z,0.80
2018-01-01T11:01:47.152Z,1.37
2018-01-01T11:04:14.728Z,1.30
2018-01-01T11:06:43.135Z,1.50
2018-01-01T11:09:11.637Z,1.60
2018-01-01T11:11:39.239Z,1.30
2018-01-01T11:14:07.672Z,1.03
2018-01-01T11:16:36.364Z,0.97
2018-01-01T11:19:03.897Z,1.30
2018-01-01T11:21:31.508Z,1.30
2018-01-01T11:24:00.008Z,1.27
2018-01-01T11:26:29.721Z,1.30
2018-01-01T11:28:57.336Z,1.23
2018-01-01T11:31:25.408Z,1.20
2018-01-01T11:33:53.888Z,1.23
2018-01-01T11:36:21.662Z,1.17
2018-01-01T11:38:49.212Z,1.30
2018-01-01T11:41:16.782Z,1.50
2018-01-01T11:43:44.343Z,1.40
2018-01-01T11:46:12.577Z,1.63
2018-01-01T11:48:41.154Z,1.70
2018-01-01T11:51:09.262Z,1.20
2018-01-01T11:53:36.811Z,1.50
2018-01-01T11:56:05.122Z,1.77
2018-01-01T11:58:32.818Z,1.07
2018-01-01T12:01:01.602Z,1.87
2018-01-01T12:03:29.897Z,1.10
2018-01-01T12:05:59.322Z,1.50
2018-01-01T12:08:28.562Z,1.10
2018-01-01T12:10:56.302Z,0.93
2018-01-01T12:13:24.615Z,1.70
2018-01-01T12:15:52.759Z,1.60
2018-01-01T12:18:21.257Z,1.10
2018-01-01T12:20:48.755Z,0.93
2018-01-01T12:23:17.383Z,1.87
2018-01-01T12:25:45.581Z,1.83
2018-01-01T12:28:13.662Z,1.30
2018-01-01T12:30:41.395Z,1.53
2018-01-01T12:33:09.834Z,1.53
2018-01-01T12:35:37.424Z,1.90
2018-01-01T12:38:05.005Z,1.43
2018-01-01T12:40:32.988Z,1.13
2018-01-01T12:43:01.308Z,1.30
2018-01-01T12:45:28.890Z,1.00
2018-01-01T12:47:56.410Z,1.50
2018-01-01T12:50:24.007Z,2.07
2018-01-01T12:52:51.689Z,1.30
2018-01-01T12:55:19.254Z,2.80
2018-01-01T12:57:46.803Z,2.67
2018-01-01T13:00:14.418Z,2.50
2018-01-01T13:02:42.767Z,2.50
2018-01-01T13:05:12.750Z,1.77
2018-01-01T13:07:40.833Z,2.63
2018-01-01T13:10:08.566Z,2.40
2018-01-01T13:12:36.175Z,1.60
2018-01-01T13:15:03.787Z,1.67
2018-01-01T13:17:31.451Z,1.30
2018-01-01T13:19:59.827Z,2.93
2018-01-01T13:22:27.426Z,2.10
2018-01-01T13:24:55.299Z,1.48
2018-01-01T13:27:24.637Z,1.60
2018-01-01T13:29:53.729Z,1.40
2018-01-01T13:32:22.764Z,1.37
2018-01-01T13:34:52.158Z,1.20
2018-01-01T13:37:19.772Z,1.10
2018-01-01T13:39:47.292Z,1.20
2018-01-01T13:42:15.673Z,1.07
2018-01-01T13:44:43.210Z,0.90
2018-01-01T13:47:11.509Z,1.00
2018-01-01T13:49:39.021Z,1.10
2018-01-01T13:52:06.631Z,1.70
2018-01-01T13:54:34.110Z,1.50
2018-01-01T13:57:01.675Z,1.80
2018-01-01T13:59:29.205Z,1.07
2018-01-01T14:01:56.785Z,1.00
2018-01-01T14:04:24.340Z,1.40
2018-01-01T14:06:51.932Z,1.30
2018-01-01T14:09:19.482Z,1.50
2018-01-01T14:11:47.065Z,1.50
2018-01-01T14:14:14.606Z,1.37
2018-01-01T14:16:42.210Z,1.37
2018-01-01T14:19:09.715Z,2.20
2018-01-01T14:21:37.363Z,2.87
2018-01-01T14:24:05.649Z,1.97
2018-01-01T14:26:34.053Z,2.03
2018-01-01T14:29:01.549Z,2.13
2018-01-01T14:31:29.048Z,9.43
2018-01-01T14:33:57.366Z,2.03
2018-01-01T14:36:24.953Z,1.97
2018-01-01T14:38:52.450Z,2.60
2018-01-01T14:41:19.986Z,1.70
2018-01-01T14:43:47.650Z,1.70
2018-01-01T14:46:15.158Z,1.73
2018-01-01T14:48:42.759Z,1.90
2018-01-01T14:51:10.278Z,2.40
2018-01-01T14:53:38.691Z,1.50
2018-01-01T14:56:06.301Z,1.30
2018-01-01T14:58:33.844Z,1.10
2018-01-01T15:01:01.352Z,1.00
2018-01-01T15:03:29.938Z,1.50
2018-01-01T15:05:57.513Z,1.10
2018-01-01T15:08:25.798Z,2.37
2018-01-01T15:10:53.380Z,1.80
2018-01-01T15:13:21.181Z,1.03
2018-01-01T15:15:48.760Z,1.30
2018-01-01T15:18:16.291Z,3.97
2018-01-01T15:20:44.440Z,2.40
2018-01-01T15:23:12.773Z,1.70
2018-01-01T15:25:40.276Z,2.17
2018-01-01T15:28:08.933Z,2.07
2018-01-01T15:30:36.529Z,3.17
2018-01-01T15:33:04.932Z,1.90
2018-01-01T15:35:33.455Z,1.93
2018-01-01T15:38:01.109Z,1.53
2018-01-01T15:40:28.628Z,1.90
2018-01-01T15:42:57.589Z,1.47
2018-01-01T15:45:25.139Z,1.77
2018-01-01T15:47:52.716Z,1.97
2018-01-01T15:50:20.276Z,1.80
2018-01-01T15:52:48.945Z,1.90
2018-01-01T15:55:16.598Z,2.90
2018-01-01T15:57:44.230Z,2.63
2018-01-01T16:00:12.517Z,2.43
2018-01-01T16:02:41.971Z,1.90
2018-01-01T16:05:09.452Z,2.40
2018-01-01T16:07:36.978Z,3.37
2018-01-01T16:10:04.486Z,5.00
2018-01-01T16:12:32.077Z,3.90
2018-01-01T16:15:00.632Z,3.93
2018-01-01T16:17:28.215Z,3.50
2018-01-01T16:19:55.830Z,3.47
2018-01-01T16:22:24.480Z,3.10
2018-01-01T16:24:52.824Z,7.93
2018-01-01T16:27:20.346Z,3.40
2018-01-01T16:29:48.683Z,4.10
2018-01-01T16:32:16.205Z,2.63
2018-01-01T16:34:44.514Z,2.60
2018-01-01T16:37:12.016Z,2.23
2018-01-01T16:39:39.668Z,3.70
2018-01-01T16:42:08.922Z,2.00
2018-01-01T16:44:36.496Z,2.63
2018-01-01T16:47:06.415Z,1.90
2018-01-01T16:49:33.933Z,1.57
2018-01-01T16:52:01.549Z,1.40
2018-01-01T16:54:29.136Z,1.70
2018-01-01T16:56:56.672Z,2.13
2018-01-01T16:59:24.170Z,1.67
2018-01-01T17:01:51.756Z,1.40
2018-01-01T17:04:20.038Z,2.10
2018-01-01T17:06:48.394Z,2.10
2018-01-01T17:09:15.929Z,1.53
2018-01-01T17:11:43.444Z,2.30
2018-01-01T17:14:10.994Z,3.10
2018-01-01T17:16:38.559Z,2.27
2018-01-01T17:19:06.269Z,3.30
2018-01-01T17:21:33.801Z,3.40
2018-01-01T17:24:01.402Z,3.70
2018-01-01T17:26:29.056Z,5.70
2018-01-01T17:28:57.440Z,4.90
2018-01-01T17:31:25.139Z,5.00
2018-01-01T17:33:52.877Z,4.07
2018-01-01T17:36:20.565Z,4.57
2018-01-01T17:38:48.089Z,3.50
2018-01-01T17:41:15.682Z,4.13
2018-01-01T17:43:43.241Z,4.30
2018-01-01T17:46:11.529Z,6.90
2018-01-01T17:48:39.064Z,3.73
2018-01-01T17:51:07.841Z,4.37
2018-01-01T17:53:35.401Z,4.93
2018-01-01T17:56:03.717Z,4.70
2018-01-01T17:58:31.281Z,4.87
2018-01-01T18:00:59.572Z,5.53
2018-01-01T18:03:27.192Z,7.43
2018-01-01T18:05:54.832Z,7.33
2018-01-01T18:08:22.367Z,6.77
2018-01-01T18:10:50.758Z,10.27
2018-01-01T18:13:18.272Z,11.67
2018-01-01T18:15:45.796Z,12.17
2018-01-01T18:18:13.817Z,9.80
2018-01-01T18:20:41.879Z,9.50
2018-01-01T18:23:09.447Z,6.87
2018-01-01T18:25:37.004Z,7.80
2018-01-01T18:28:04.540Z,5.30
2018-01-01T18:30:32.048Z,5.63
2018-01-01T18:32:59.605Z,4.70
2018-01-01T18:35:27.198Z,5.10
2018-01-01T18:37:54.694Z,4.10
2018-01-01T18:40:22.258Z,6.03
2018-01-01T18:42:49.735Z,6.30
2018-01-01T18:45:17.986Z,6.90
2018-01-01T18:47:45.539Z,7.37
2018-01-01T18:50:13.838Z,6.10
2018-01-01T18:52:41.377Z,5.63
2018-01-01T18:55:08.936Z,10.60
2018-01-01T18:57:39.374Z,6.43
2018-01-01T19:00:07.705Z,4.83
2018-01-01T19:02:35.287Z,5.70
2018-01-01T19:05:02.833Z,7.90
2018-01-01T19:07:30.477Z,7.60
2018-01-01T19:09:58.805Z,8.03
2018-01-01T19:12:27.111Z,8.40
2018-01-01T19:14:55.411Z,8.37
2018-01-01T19:17:22.950Z,10.17
2018-01-01T19:19:51.293Z,7.67
2018-01-01T19:22:18.883Z,7.03
2018-01-01T19:24:47.061Z,8.40
2018-01-01T19:27:14.690Z,9.87
2018-01-01T19:29:42.367Z,12.33
2018-01-01T19:32:09.973Z,10.60
2018-01-01T19:34:39.041Z,9.67
2018-01-01T19:37:07.266Z,8.30
2018-01-01T19:39:35.069Z,8.30
2018-01-01T19:42:03.613Z,7.83
2018-01-01T19:44:31.907Z,7.63
2018-01-01T19:47:00.166Z,7.57
2018-01-01T19:49:28.436Z,8.43
2018-01-01T19:51:55.918Z,12.57
2018-01-01T19:54:24.172Z,12.80
2018-01-01T19:56:51.755Z,10.50
2018-01-01T19:59:24.230Z,6.47
2018-01-01T20:01:52.409Z,4.87
2018-01-01T20:04:20.714Z,4.80
2018-01-01T20:06:48.286Z,4.70
2018-01-01T20:09:15.782Z,4.30
2018-01-01T20:11:43.284Z,4.97
2018-01-01T20:14:10.861Z,5.00
2018-01-01T20:16:39.845Z,5.00
2018-01-01T20:19:08.097Z,4.13
2018-01-01T20:21:35.576Z,4.80
2018-01-01T20:24:03.105Z,4.83
2018-01-01T20:26:30.625Z,5.70
2018-01-01T20:28:58.900Z,4.97
2018-01-01T20:31:26.388Z,4.90
2018-01-01T20:33:54.656Z,5.03
2018-01-01T20:36:22.881Z,4.60
2018-01-01T20:38:52.757Z,5.07
2018-01-01T20:41:20.240Z,4.47
2018-01-01T20:43:47.748Z,4.97
2018-01-01T20:46:15.298Z,4.53
2018-01-01T20:48:42.802Z,4.63
2018-01-01T20:51:10.364Z,3.80
2018-01-01T20:53:38.623Z,4.20
2018-01-01T20:56:06.935Z,4.30
2018-01-01T20:58:34.494Z,4.27
2018-01-01T21:01:01.951Z,4.77
2018-01-01T21:03:31.416Z,4.07
2018-01-01T21:05:58.964Z,6.37
2018-01-01T21:08:26.473Z,4.90
2018-01-01T21:10:54.842Z,5.53
2018-01-01T21:13:23.865Z,4.43
2018-01-01T21:15:52.130Z,4.03
2018-01-01T21:18:19.732Z,4.30
2018-01-01T21:20:47.333Z,3.80
2018-01-01T21:23:14.826Z,4.90
2018-01-01T21:25:43.144Z,4.40
2018-01-01T21:28:10.665Z,5.40
2018-01-01T21:30:38.188Z,4.57
2018-01-01T21:33:05.678Z,5.50
2018-01-01T21:35:33.198Z,6.90
2018-01-01T21:38:00.762Z,4.13
2018-01-01T21:40:29.054Z,4.97
2018-01-01T21:42:56.662Z,5.50
2018-01-01T21:45:24.161Z,4.30
2018-01-01T21:47:51.668Z,4.10
2018-01-01T21:50:19.213Z,4.27
2018-01-01T21:52:46.737Z,4.90
2018-01-01T21:55:15.003Z,4.80
2018-01-01T21:57:42.543Z,4.93
2018-01-01T22:00:10.584Z,6.60
2018-01-01T22:02:38.928Z,4.10
2018-01-01T22:05:07.498Z,4.37
2018-01-01T22:07:35.129Z,4.20
2018-01-01T22:10:02.713Z,3.33
2018-01-01T22:12:30.218Z,5.23
2018-01-01T22:14:57.757Z,6.87
2018-01-01T22:17:25.273Z,3.90
2018-01-01T22:19:52.773Z,4.07
2018-01-01T22:22:20.300Z,6.07
2018-01-01T22:24:47.814Z,3.73
2018-01-01T22:27:15.377Z,5.40
2018-01-01T22:29:42.906Z,6.27
2018-01-01T22:32:10.396Z,5.67
2018-01-01T22:34:38.277Z,7.07
2018-01-01T22:37:06.064Z,4.70
2018-01-01T22:39:34.354Z,4.50
2018-01-01T22:42:02.632Z,5.10
2018-01-01T22:44:30.131Z,5.33
2018-01-01T22:46:57.608Z,4.40
2018-01-01T22:49:25.214Z,5.30
2018-01-01T22:51:53.462Z,5.30
2018-01-01T22:54:21.070Z,3.57
2018-01-01T22:56:49.333Z,4.60
2018-01-01T22:59:17.604Z,4.47
2018-01-01T23:01:45.189Z,3.70
2018-01-01T23:04:14.177Z,3.63
2018-01-01T23:06:42.454Z,5.17
2018-01-01T23:09:09.953Z,4.00
2018-01-01T23:11:37.509Z,3.87
2018-01-01T23:14:05.051Z,3.60
2018-01-01T23:16:33.345Z,3.63
2018-01-01T23:19:01.595Z,3.30
2018-01-01T23:21:29.081Z,3.87
2018-01-01T23:23:57.313Z,4.07
2018-01-01T23:26:24.850Z,4.97
2018-01-01T23:28:52.346Z,4.67
2018-01-01T23:31:19.884Z,4.00
2018-01-01T23:33:47.351Z,3.63
2018-01-01T23:36:14.831Z,4.13
2018-01-01T23:38:43.021Z,3.33
2018-01-01T23:41:10.517Z,3.50
2018-01-01T23:43:38.834Z,3.50
2018-01-01T23:46:06.355Z,3.40
2018-01-01T23:48:35.574Z,3.90
2018-01-01T23:51:03.838Z,2.90
2018-01-01T23:53:32.140Z,3.57
2018-01-01T23:55:59.652Z,3.07
2018-01-01T23:58:27.759Z,2.70
